Impacts METAR Board INFO
IDs:

KATL - Atlanta/Hartsfield-J, GA, US

Updated at: 0523 UTC 13 Dec 2017
Potential Impact None Slight Moderate High
Time12/17Z 12/18Z 12/19Z 12/20Z 12/21Z 12/22Z 12/23Z 13/00Z 13/01Z 13/02Z 13/03Z 13/04Z 13/05Z
VIS10 10 10 10 10 10 10 10 10 10 10 10 10
CIG40 42 35 -- -- -- -- -- -- -- -- -- --
CoverBKNBKNBKNFEWFEWFEWCLRCLRCLRCLRCLRCLRCLR
FltCatVFRVFRVFRVFRVFRVFRVFRVFRVFRVFRVFRVFRVFR
WX--------------------------
WDir330340310330290300280290290300310320320
WSpd21 18 17 13 16 15 8 10 13 12 16 11 12
WGst26 28 26 25 25 23 -- -- -- -- 28 -- 21
Raw hourly METARs
KATL 121652Z 33021G26KT 10SM BKN040 09/01 A2994 RMK AO2 PK WND 31030/1557 SLP139 T00940006
KATL 121752Z 34018G28KT 10SM BKN042 09/01 A2993 RMK AO2 PK WND 33032/1728 SLP137 T00940006 10106 20050 50006
KATL 121852Z 31017G26KT 10SM BKN035 BKN045 08/01 A2994 RMK AO2 PK WND 30026/1850 SLP140 T00830006
KATL 121952Z 33013G25KT 10SM FEW040 09/00 A2992 RMK AO2 PK WND 32027/1857 SLP133 T00890000
KATL 122052Z 29016G25KT 10SM FEW040 09/M02 A2991 RMK AO2 PK WND 32029/2033 SLP133 T00891017 58006
KATL 122152Z 30015G23KT 10SM FEW045 FEW250 08/M02 A2992 RMK AO2 PK WND 31027/2102 SLP136 T00781022
KATL 122252Z 28008KT 10SM CLR 07/M02 A2993 RMK AO2 PK WND 31026/2219 SLP141 T00671022
KATL 122352Z 29010KT 10SM CLR 06/M02 A2994 RMK AO2 SLP142 T00611022 10094 20061 51008
KATL 130052Z 29013KT 10SM CLR 06/M03 A2995 RMK AO2 SLP147 T00561033
KATL 130152Z 30012KT 10SM CLR 05/M04 A2996 RMK AO2 SLP150 T00501044
KATL 130252Z 31016G28KT 10SM CLR 04/M07 A2997 RMK AO2 PK WND 32028/0250 SLP154 T00441067 51011
KATL 130352Z 32011KT 10SM CLR 03/M07 A2998 RMK AO2 SLP157 T00331067
KATL 130452Z 32012G21KT 10SM CLR 02/M07 A3000 RMK AO2 SLP164 T00221072 401060022